Terminal Aerodrome Forecast
Issued by NWS

Home | Current Version | Previous Version | Text Only | Print | Product List | Glossary On
Versions: 1 2 3 4 5 6 7 8 9 10 11 12 13 14 15 16 17 18 19 20 21 22 23
000
FTAK31 PANC 281135
TAFATK
TAF
PATK 281135Z 2812/0112 VRB03KT P6SM VCSH SCT050 BKN080
     FM281500 VRB03KT P6SM -SN BKN035
     FM282000 VRB03KT 3SM -SN OVC015
     FM010000 36006KT P6SM VCSH FEW010 SCT020 BKN040
     FM010700 01005KT P6SM VCSH SCT100
     FM011100 01005KT 3SM BR BKN003=

USA.gov is the U.S. government's official web portal to all federal, state and local government web resources and services.